Elkhorn, West Virginia
Current Conditions -  °F | °C
As of 11:52 PM on Saturday 25 Oct 2014 (Local Time) from KBLF Reporting Station
Overcast Overcast  
Wind Chill: 58°   Ceiling: 1300
Heat Index: 58°   Visibility: 10mi
Dew Point: 49°   Wind: 10mph
Humidity: 72%   Direction: 270°W
Pressure: 29.96"   Gusts: NA
Location:  37.39°N, 81.41°W
Report Text: KBLF 260352Z AUTO 27009KT 10SM OVC013 14/09 A2996 RMK AO2 SLP125 T01440094
Loading
Personal Weather Stations






























Interactive Weather Map
Tropical Storm Tracking
New forecast layout! Learn more

10-Day Weather Forecast

Advertisements
Track Severe Weather on mobile